Time;durP1;ratioP1;P1;durP2;ratioP2;P2;SDS_P1;SDS_P2;PMS_P1;PMS_P2;Temp;Humidity;BMP_temperature;BMP_pressure;BME280_temperature;BME280_humidity;BME280_pressure;Samples;Min_cycle;Max_cycle;Signal;HPM_P1;HPM_P2
2022/03/10 00:01:51;;;;;;;40.05;17.12;;;;;;;-0.07;70.13;100956.97;4423501;32;20085;-77
2022/03/10 00:04:18;;;;;;;35.45;13.38;;;;;;;-0.10;70.61;100953.38;4423782;32;20086;-77
2022/03/10 00:06:45;;;;;;;39.88;15.85;;;;;;;-0.35;72.49;100959.25;4423751;32;20503;-78
2022/03/10 00:09:12;;;;;;;41.28;15.93;;;;;;;-0.59;73.78;100961.69;4423770;32;20389;-77
2022/03/10 00:11:40;;;;;;;100.40;36.88;;;;;;;-0.69;73.90;100973.34;4409293;32;20157;-77
2022/03/10 00:14:10;;;;;;;97.55;35.67;;;;;;;-0.74;74.42;100965.41;4423618;32;20132;-78
2022/03/10 00:16:38;;;;;;;87.68;33.42;;;;;;;-0.59;73.59;100966.88;4423745;32;20101;-77
2022/03/10 00:19:06;;;;;;;72.25;28.12;;;;;;;-0.76;75.26;100969.63;4423435;32;20302;-77
2022/03/10 00:21:33;;;;;;;48.65;19.15;;;;;;;-1.05;75.79;100978.69;4409455;32;20163;-78
2022/03/10 00:24:00;;;;;;;36.63;16.23;;;;;;;-1.15;76.25;100971.34;4423636;32;20101;-78
2022/03/10 00:26:27;;;;;;;29.48;12.40;;;;;;;-1.05;75.35;100980.41;4423507;32;20154;-77
2022/03/10 00:28:55;;;;;;;29.35;12.63;;;;;;;-0.98;75.07;100983.31;4423678;32;20085;-77
2022/03/10 00:31:22;;;;;;;30.40;13.45;;;;;;;-1.16;76.59;100986.81;4423428;32;20299;-78
2022/03/10 00:33:49;;;;;;;24.67;12.52;;;;;;;-1.23;76.55;100996.87;4423340;32;20577;-78
2022/03/10 00:36:16;;;;;;;31.83;13.35;;;;;;;-1.34;77.36;100997.16;4423541;32;20096;-78
2022/03/10 00:38:43;;;;;;;27.33;13.05;;;;;;;-1.43;77.63;100997.66;4409189;32;20437;-78
2022/03/10 00:41:11;;;;;;;30.50;13.80;;;;;;;-1.50;78.42;100996.47;4423344;32;20161;-77
2022/03/10 00:43:40;;;;;;;32.58;15.32;;;;;;;-1.59;78.65;101019.31;4423581;32;20086;-78
2022/03/10 00:46:07;;;;;;;30.92;15.02;;;;;;;-1.60;78.88;101020.13;4409183;32;20130;-77
2022/03/10 00:48:36;;;;;;;28.20;13.55;;;;;;;-1.66;78.84;101016.34;4423437;32;20127;-78
2022/03/10 00:51:05;;;;;;;27.30;12.95;;;;;;;-1.77;79.04;101026.19;4423280;32;20131;-77
2022/03/10 00:53:33;;;;;;;25.62;13.00;;;;;;;-1.74;78.96;101022.03;4423242;32;20167;-77
2022/03/10 00:56:01;;;;;;;32.38;13.73;;;;;;;-1.36;76.35;101029.84;4423404;32;20803;-77
2022/03/10 00:58:28;;;;;;;31.00;15.02;;;;;;;-1.19;75.56;101028.91;4408920;32;20120;-77
2022/03/10 01:00:55;;;;;;;32.70;14.98;;;;;;;-1.47;76.84;101032.81;4423176;32;20511;-77
2022/03/10 01:03:23;;;;;;;37.17;14.68;;;;;;;-1.32;75.55;101034.34;4423160;32;20186;-77
2022/03/10 01:05:51;;;;;;;29.67;13.57;;;;;;;-1.32;75.47;101036.91;4423220;32;20127;-77
2022/03/10 01:08:18;;;;;;;34.80;16.27;;;;;;;-1.20;74.83;101047.84;4423399;32;20119;-78
2022/03/10 01:10:46;;;;;;;31.02;15.65;;;;;;;-0.99;73.83;101048.81;4423080;32;20510;-78
2022/03/10 01:13:15;;;;;;;36.30;15.82;;;;;;;-1.12;74.81;101046.47;4422403;32;20097;-78
2022/03/10 01:15:45;;;;;;;35.88;15.90;;;;;;;-1.03;74.55;101061.53;4422635;32;20202;-78
2022/03/10 01:18:14;;;;;;;38.35;17.12;;;;;;;-1.30;77.20;101056.88;4423042;32;20085;-77
2022/03/10 01:20:42;;;;;;;35.80;17.65;;;;;;;-1.49;79.32;101060.25;4396267;32;20105;-78
2022/03/10 01:23:10;;;;;;;31.12;15.52;;;;;;;-1.61;80.51;101064.84;4423046;32;20174;-78
2022/03/10 01:25:38;;;;;;;33.40;15.57;;;;;;;-1.63;81.42;101060.44;4423058;32;20101;-78
2022/03/10 01:28:06;;;;;;;33.13;17.37;;;;;;;-1.69;82.54;101053.28;4422929;32;20085;-77
2022/03/10 01:30:33;;;;;;;35.95;17.25;;;;;;;-1.66;83.48;101055.09;4408914;32;20115;-78
2022/03/10 01:33:00;;;;;;;30.35;15.90;;;;;;;-1.75;83.46;101051.28;4422845;32;20112;-78
2022/03/10 01:35:27;;;;;;;34.95;17.37;;;;;;;-1.77;83.67;101052.00;4422714;32;20124;-78
2022/03/10 01:37:55;;;;;;;32.95;16.75;;;;;;;-1.73;83.61;101053.97;4422893;32;20518;-78
2022/03/10 01:40:23;;;;;;;32.83;17.08;;;;;;;-1.84;84.63;101055.97;4423078;32;20093;-77
2022/03/10 01:42:50;;;;;;;35.10;16.55;;;;;;;-1.83;84.73;101064.66;4422655;32;20430;-78
2022/03/10 01:45:17;;;;;;;34.35;17.20;;;;;;;-1.84;84.95;101070.59;4422774;32;20139;-78
2022/03/10 01:47:46;;;;;;;32.05;16.35;;;;;;;-1.80;85.05;101077.69;4422632;32;20111;-78
2022/03/10 01:50:14;;;;;;;41.00;18.10;;;;;;;-1.70;85.89;101065.31;4422558;32;20085;-78
2022/03/10 01:52:42;;;;;;;35.00;16.35;;;;;;;-1.54;85.62;101076.38;4422653;32;20152;-77
2022/03/10 01:55:10;;;;;;;30.55;16.37;;;;;;;-1.40;85.85;101077.03;4422415;32;20209;-78
2022/03/10 01:57:38;;;;;;;31.17;16.35;;;;;;;-1.02;82.39;101071.94;4422383;32;20480;-78
2022/03/10 02:00:07;;;;;;;33.13;16.40;;;;;;;-1.23;83.39;101076.12;4422424;32;20526;-78
2022/03/10 02:02:35;;;;;;;31.45;16.42;;;;;;;-1.22;84.94;101083.06;4422667;32;20094;-78
2022/03/10 02:05:03;;;;;;;35.47;15.45;;;;;;;-1.14;84.59;101080.84;4422326;32;20230;-78
2022/03/10 02:10:17;;;;;;;35.20;17.00;;;;;;;-0.95;82.95;101088.66;4422399;32;20093;-78
2022/03/10 02:12:50;;;;;;;37.85;17.85;;;;;;;-1.04;85.11;101086.50;4422310;32;20136;-78
2022/03/10 02:18:17;;;;;;;34.90;16.87;;;;;;;-1.01;85.93;101094.41;4422213;32;20200;-77
2022/03/10 02:20:46;;;;;;;38.22;18.20;;;;;;;-0.87;86.65;101100.22;4422142;32;20400;-78
2022/03/10 02:23:15;;;;;;;34.03;17.15;;;;;;;-0.74;86.30;101099.09;4421938;32;20097;-78
2022/03/10 02:25:42;;;;;;;31.83;17.37;;;;;;;-0.51;84.70;101095.78;4423186;32;20102;-77
2022/03/10 02:28:10;;;;;;;34.95;16.98;;;;;;;-0.53;85.34;101101.72;4424389;32;20085;-78
2022/03/10 02:30:37;;;;;;;31.73;16.50;;;;;;;-0.53;86.74;101112.06;4424288;32;20472;-77
2022/03/10 02:33:05;;;;;;;32.45;16.62;;;;;;;-0.43;86.62;101110.78;4424321;32;20487;-78
2022/03/10 02:35:33;;;;;;;33.55;16.70;;;;;;;-0.34;86.13;101116.38;4424380;32;20164;-78
2022/03/10 02:38:00;;;;;;;33.38;17.33;;;;;;;-0.34;86.35;101119.84;4409955;32;20160;-78
2022/03/10 02:40:28;;;;;;;32.38;16.20;;;;;;;-0.34;86.55;101114.66;4424224;32;20097;-78
2022/03/10 02:42:55;;;;;;;34.45;16.90;;;;;;;-0.19;85.84;101108.37;4424105;32;20179;-77
2022/03/10 02:45:23;;;;;;;49.15;16.12;;;;;;;-0.22;86.08;101128.97;4424282;32;20521;-77
2022/03/10 02:47:51;;;;;;;33.63;17.27;;;;;;;-0.20;86.61;101124.75;4423999;32;20144;-78
2022/03/10 02:50:19;;;;;;;33.63;16.75;;;;;;;-0.16;86.34;101130.12;4424117;32;20161;-77
2022/03/10 02:52:46;;;;;;;31.75;15.85;;;;;;;-0.08;86.91;101127.84;4424188;32;20101;-77
2022/03/10 02:55:14;;;;;;;31.73;16.02;;;;;;;0.19;84.36;101128.16;4423968;32;20131;-77
2022/03/10 02:57:41;;;;;;;39.75;19.08;;;;;;;0.19;85.35;101122.97;4424194;32;20168;-77
2022/03/10 03:00:09;;;;;;;34.25;17.02;;;;;;;0.26;86.64;101131.87;4424079;32;20392;-77
2022/03/10 03:02:38;;;;;;;35.13;17.62;;;;;;;0.41;86.62;101135.97;4424021;32;20433;-77
2022/03/10 03:05:06;;;;;;;35.13;18.12;;;;;;;0.53;85.15;101135.63;4424033;32;20606;-77
2022/03/10 03:07:34;;;;;;;33.75;16.90;;;;;;;0.63;84.16;101137.72;4424013;32;20444;-78
2022/03/10 03:10:03;;;;;;;34.25;17.42;;;;;;;0.64;85.04;101149.91;4424141;32;20123;-78
2022/03/10 03:12:31;;;;;;;31.58;15.80;;;;;;;0.67;85.15;101143.91;4423834;32;20256;-77
2022/03/10 03:14:58;;;;;;;31.20;16.25;;;;;;;0.75;84.15;101149.44;4423959;32;20105;-78
2022/03/10 03:17:26;;;;;;;29.63;16.98;;;;;;;0.81;83.99;101147.06;4424088;32;20105;-77
2022/03/10 03:19:55;;;;;;;37.15;16.58;;;;;;;0.76;85.63;101151.19;4423818;32;20146;-77
2022/03/10 03:22:22;;;;;;;38.35;18.27;;;;;;;0.78;85.42;101152.13;4424102;32;20124;-77
2022/03/10 03:24:49;;;;;;;37.97;18.17;;;;;;;0.79;85.21;101156.53;4423870;32;20160;-77
2022/03/10 03:27:16;;;;;;;31.98;17.20;;;;;;;0.82;85.40;101160.13;4409726;32;20077;-77
2022/03/10 03:29:44;;;;;;;34.75;17.20;;;;;;;0.93;84.40;101165.72;4423816;32;20119;-77
2022/03/10 03:32:11;;;;;;;34.05;16.87;;;;;;;1.06;84.71;101167.09;4423839;32;20101;-77
2022/03/10 03:34:38;;;;;;;30.33;16.48;;;;;;;1.04;85.62;101179.13;4423813;32;20158;-77
2022/03/10 03:37:05;;;;;;;36.90;17.35;;;;;;;1.02;86.49;101176.44;4423046;32;20111;-77
2022/03/10 03:39:32;;;;;;;31.55;17.62;;;;;;;1.06;86.09;101185.25;4409557;32;20115;-77
2022/03/10 03:42:00;;;;;;;29.90;16.12;;;;;;;1.15;85.51;101186.50;4423782;32;20831;-77
2022/03/10 03:44:27;;;;;;;34.58;17.55;;;;;;;1.14;86.50;101194.25;4423917;32;20101;-77
2022/03/10 03:46:54;;;;;;;38.65;17.92;;;;;;;1.16;86.17;101192.56;4423755;32;20397;-77
2022/03/10 03:49:21;;;;;;;33.90;17.58;;;;;;;1.19;86.06;101203.06;4423746;32;20416;-77
2022/03/10 03:51:48;;;;;;;33.60;17.52;;;;;;;1.16;87.10;101206.44;4409658;32;20488;-77
2022/03/10 03:54:16;;;;;;;37.05;18.08;;;;;;;1.31;85.91;101211.38;4423617;32;20417;-77
2022/03/10 03:56:43;;;;;;;32.58;17.05;;;;;;;1.39;86.49;101209.94;4423706;32;20112;-77
2022/03/10 03:59:11;;;;;;;37.75;18.87;;;;;;;1.50;85.78;101214.66;4423702;32;20116;-77
2022/03/10 04:01:38;;;;;;;36.90;17.62;;;;;;;1.56;85.38;101213.19;4423643;32;20097;-77
2022/03/10 04:04:06;;;;;;;31.75;15.35;;;;;;;1.66;84.76;101222.19;4423625;32;20101;-78
2022/03/10 04:06:33;;;;;;;34.30;18.00;;;;;;;1.68;84.06;101226.63;4423705;32;20170;-78
2022/03/10 04:09:00;;;;;;;32.25;16.70;;;;;;;1.72;83.83;101239.72;4423700;32;20501;-77
2022/03/10 04:11:29;;;;;;;30.42;15.95;;;;;;;1.83;83.38;101236.69;4423659;32;20125;-78
2022/03/10 04:13:56;;;;;;;33.13;15.40;;;;;;;1.82;82.43;101234.03;4423670;32;20105;-78
2022/03/10 04:16:23;;;;;;;25.85;13.77;;;;;;;1.90;81.42;101243.87;4423515;32;20081;-78
2022/03/10 04:18:51;;;;;;;26.62;13.62;;;;;;;1.91;80.40;101250.00;4423357;32;20135;-78
2022/03/10 04:21:18;;;;;;;26.10;11.35;;;;;;;1.86;79.80;101247.19;4423721;32;20171;-78
2022/03/10 04:23:45;;;;;;;19.17;10.43;;;;;;;1.92;78.11;101250.03;4423492;32;20175;-78
2022/03/10 04:26:12;;;;;;;17.08;10.10;;;;;;;1.90;77.09;101256.00;4423483;32;20116;-78
2022/03/10 04:28:39;;;;;;;18.23;9.18;;;;;;;1.85;76.86;101262.75;4423602;32;20483;-78
2022/03/10 04:31:07;;;;;;;12.02;7.37;;;;;;;1.90;75.14;101261.19;4423486;32;20097;-78
2022/03/10 04:33:34;;;;;;;13.60;7.05;;;;;;;1.99;72.34;101268.47;4423545;32;20139;-78
2022/03/10 04:36:02;;;;;;;12.15;7.00;;;;;;;1.96;69.85;101268.34;4423440;32;20093;-78
2022/03/10 04:38:29;;;;;;;11.65;6.70;;;;;;;1.99;69.21;101273.66;4433761;32;20092;-77
2022/03/10 04:40:57;;;;;;;10.88;6.22;;;;;;;2.02;68.70;101276.38;4439736;32;20150;-78
2022/03/10 04:43:24;;;;;;;9.80;6.00;;;;;;;2.04;68.44;101272.97;4438876;32;20106;-78
2022/03/10 04:45:51;;;;;;;11.63;6.18;;;;;;;2.10;67.56;101273.22;4439551;32;20077;-78
2022/03/10 04:48:18;;;;;;;13.18;7.12;;;;;;;2.05;67.03;101266.97;4439635;32;20109;-78
2022/03/10 04:50:46;;;;;;;11.73;6.07;;;;;;;2.04;66.57;101269.50;4425205;32;20124;-78
2022/03/10 04:53:14;;;;;;;11.23;6.37;;;;;;;2.11;66.37;101272.38;4438986;32;20097;-78
2022/03/10 04:55:41;;;;;;;10.73;5.90;;;;;;;2.11;65.99;101284.50;4425002;32;20173;-78
2022/03/10 04:58:08;;;;;;;11.00;6.10;;;;;;;2.09;65.98;101283.56;4424513;32;20158;-78
2022/03/10 05:00:36;;;;;;;16.80;6.35;;;;;;;2.12;65.48;101292.38;4439275;32;20097;-78
2022/03/10 05:03:03;;;;;;;12.23;6.45;;;;;;;2.09;64.50;101289.66;4439365;32;20124;-78
2022/03/10 05:05:32;;;;;;;10.43;6.35;;;;;;;1.96;65.17;101302.13;4439258;32;20408;-78
2022/03/10 05:07:59;;;;;;;16.25;6.68;;;;;;;1.98;65.03;101297.84;4438977;32;20418;-78
2022/03/10 05:10:26;;;;;;;14.15;7.12;;;;;;;1.98;65.01;101306.56;4438579;32;20182;-78
2022/03/10 05:12:57;;;;;;;14.05;6.57;;;;;;;1.99;65.00;101310.06;4435364;32;20502;-79
2022/03/10 05:15:31;;;;;;;14.00;7.72;;;;;;;1.94;64.88;101319.38;4437718;32;20509;-78
2022/03/10 05:18:00;;;;;;;12.85;7.05;;;;;;;2.00;64.67;101330.88;4437962;32;20466;-78
2022/03/10 05:20:29;;;;;;;14.93;7.28;;;;;;;2.01;64.92;101331.78;4430414;32;20108;-78
2022/03/10 05:22:59;;;;;;;14.87;7.20;;;;;;;1.99;64.78;101334.31;4436786;32;20488;-78
2022/03/10 05:25:36;;;;;;;13.02;7.43;;;;;;;2.01;64.48;101339.56;4435169;32;20421;-78
2022/03/10 05:28:04;;;;;;;11.02;6.43;;;;;;;1.97;64.47;101338.56;4404434;32;20150;-78
2022/03/10 05:30:32;;;;;;;10.73;6.12;;;;;;;1.94;63.75;101335.84;4425714;32;20113;-78
2022/03/10 05:32:59;;;;;;;13.23;6.53;;;;;;;1.98;62.62;101349.84;4438289;32;20101;-78
2022/03/10 05:35:29;;;;;;;15.10;6.37;;;;;;;1.83;63.43;101348.44;4438092;32;20198;-78
2022/03/10 05:37:57;;;;;;;12.50;6.70;;;;;;;1.81;63.58;101344.91;4424134;32;20519;-78
2022/03/10 05:40:24;;;;;;;13.70;6.82;;;;;;;1.82;63.45;101354.47;4438056;32;20100;-78
2022/03/10 05:42:53;;;;;;;13.75;6.12;;;;;;;1.87;63.10;101352.94;4437897;32;20416;-78
2022/03/10 05:45:21;;;;;;;13.05;6.12;;;;;;;1.86;62.19;101364.12;4438040;32;20110;-78
2022/03/10 05:47:53;;;;;;;11.82;6.18;;;;;;;1.87;61.67;101363.34;4438162;32;20500;-78
2022/03/10 05:50:22;;;;;;;25.25;5.87;;;;;;;1.91;61.23;101360.03;4437843;32;20625;-78
2022/03/10 05:52:50;;;;;;;21.25;6.03;;;;;;;1.81;61.38;101365.69;4437879;32;20097;-78
2022/03/10 05:55:18;;;;;;;16.48;6.95;;;;;;;1.89;60.97;101377.25;4437662;32;20128;-78
2022/03/10 05:57:47;;;;;;;14.50;5.20;;;;;;;1.96;60.89;101378.38;4437256;32;20109;-78
2022/03/10 06:00:15;;;;;;;16.23;5.85;;;;;;;2.05;60.23;101383.97;4438576;32;20299;-78
2022/03/10 06:02:43;;;;;;;14.75;5.55;;;;;;;2.16;59.21;101386.97;4440724;32;20104;-78
2022/03/10 06:05:10;;;;;;;19.35;5.20;;;;;;;2.18;58.59;101387.91;4440576;32;20123;-78
2022/03/10 06:07:38;;;;;;;27.37;6.10;;;;;;;2.23;58.86;101385.50;4419786;32;20104;-78
2022/03/10 06:10:06;;;;;;;8.57;5.30;;;;;;;2.30;58.57;101379.69;4425181;32;20182;-78
2022/03/10 06:12:34;;;;;;;10.52;5.03;;;;;;;2.32;57.77;101386.69;4425027;32;20120;-78
2022/03/10 06:15:03;;;;;;;10.32;5.25;;;;;;;2.36;57.96;101385.97;4385775;32;20081;-79
2022/03/10 06:17:31;;;;;;;12.95;5.60;;;;;;;2.41;58.11;101393.09;4424964;32;20164;-78
2022/03/10 06:19:59;;;;;;;11.23;5.53;;;;;;;2.41;57.75;101395.69;4410681;32;20105;-78
2022/03/10 06:22:33;;;;;;;20.73;5.85;;;;;;;2.37;57.77;101395.56;4424573;32;20148;-78
2022/03/10 06:25:01;;;;;;;13.05;5.03;;;;;;;2.42;57.85;101405.25;4424174;32;20205;-78
2022/03/10 06:27:28;;;;;;;10.25;4.57;;;;;;;2.51;57.45;101411.69;4424183;32;20094;-78
2022/03/10 06:29:56;;;;;;;8.20;5.18;;;;;;;2.61;56.63;101420.72;4424129;32;20097;-78
2022/03/10 06:32:24;;;;;;;14.40;5.68;;;;;;;2.58;56.10;101423.19;4424105;32;20093;-79
2022/03/10 06:34:54;;;;;;;14.43;6.57;;;;;;;2.57;55.85;101424.91;4423915;32;20085;-79
2022/03/10 06:37:21;;;;;;;11.27;5.97;;;;;;;2.60;55.60;101432.84;4423970;32;20167;-79
2022/03/10 06:39:49;;;;;;;10.57;5.53;;;;;;;2.57;55.49;101427.50;4424234;32;20544;-78
2022/03/10 06:42:16;;;;;;;18.42;6.07;;;;;;;2.58;54.95;101428.41;4409709;32;20435;-79
2022/03/10 06:44:44;;;;;;;14.38;5.85;;;;;;;2.64;55.18;101428.62;4424048;32;20511;-78
2022/03/10 06:47:14;;;;;;;13.75;5.12;;;;;;;2.71;54.66;101429.75;4424194;32;20150;-79
2022/03/10 06:49:41;;;;;;;13.77;6.40;;;;;;;2.84;54.07;101435.47;4423895;32;20545;-78
2022/03/10 06:52:09;;;;;;;12.32;5.47;;;;;;;2.83;53.54;101441.50;4409884;32;20430;-79
2022/03/10 06:54:38;;;;;;;14.27;5.22;;;;;;;2.88;53.33;101444.25;4423798;32;20464;-79
2022/03/10 06:57:06;;;;;;;10.70;4.37;;;;;;;2.92;52.74;101447.88;4423672;32;20112;-80
2022/03/10 06:59:34;;;;;;;35.53;4.97;;;;;;;2.82;53.04;101449.25;4423498;32;20558;-79
2022/03/10 07:02:01;;;;;;;11.57;4.50;;;;;;;2.71;52.96;101453.16;4410054;32;20534;-79
2022/03/10 07:04:28;;;;;;;23.30;4.45;;;;;;;2.63;52.86;101461.56;4423831;32;20136;-79
2022/03/10 07:06:56;;;;;;;8.68;3.87;;;;;;;2.67;52.83;101464.31;4426202;32;20172;-80
2022/03/10 07:09:23;;;;;;;9.75;4.37;;;;;;;2.72;52.73;101463.66;4425810;32;20090;-79
2022/03/10 07:11:50;;;;;;;11.40;3.78;;;;;;;2.78;52.51;101471.66;4425125;32;20557;-80
2022/03/10 07:14:18;;;;;;;7.15;4.15;;;;;;;2.93;51.91;101468.72;4423986;32;20143;-79
2022/03/10 07:16:45;;;;;;;7.05;4.22;;;;;;;2.85;51.40;101468.47;4423751;32;20115;-80
2022/03/10 07:19:13;;;;;;;9.18;4.78;;;;;;;2.79;51.51;101476.06;4423537;32;20097;-79
2022/03/10 07:21:41;;;;;;;7.80;4.22;;;;;;;2.77;51.78;101487.25;4423852;32;20184;-78
2022/03/10 07:24:08;;;;;;;6.97;4.53;;;;;;;2.79;51.11;101482.97;4424058;32;20081;-79
2022/03/10 07:26:36;;;;;;;8.10;4.57;;;;;;;2.92;50.89;101481.72;4423738;32;20525;-79
2022/03/10 07:29:04;;;;;;;7.62;3.92;;;;;;;2.92;50.58;101482.59;4423779;32;20097;-79
2022/03/10 07:31:32;;;;;;;6.70;3.90;;;;;;;2.93;50.42;101479.16;4409285;32;20109;-80
2022/03/10 07:34:00;;;;;;;12.23;4.75;;;;;;;3.11;50.25;101489.38;4423813;32;20094;-80
2022/03/10 07:36:28;;;;;;;7.50;4.45;;;;;;;3.14;49.53;101493.78;4423685;32;20105;-80
2022/03/10 07:38:57;;;;;;;16.45;5.10;;;;;;;3.33;49.64;101486.69;4423829;32;20113;-80
2022/03/10 07:41:25;;;;;;;7.28;4.40;;;;;;;3.40;50.38;101485.19;4397230;32;20110;-81
2022/03/10 07:43:53;;;;;;;9.18;4.65;;;;;;;3.45;50.47;101498.37;4410022;32;20090;-80
2022/03/10 07:46:23;;;;;;;10.55;5.03;;;;;;;3.64;49.77;101494.66;4412569;32;20159;-81
2022/03/10 07:48:51;;;;;;;9.70;4.37;;;;;;;4.01;48.39;101486.34;4410720;32;20124;-79
2022/03/10 07:51:19;;;;;;;14.18;5.12;;;;;;;4.34;47.07;101493.47;4424575;32;20144;-80
2022/03/10 07:53:47;;;;;;;7.90;4.47;;;;;;;4.72;47.42;101495.53;4429927;32;20659;-79
2022/03/10 07:56:14;;;;;;;8.73;4.43;;;;;;;5.21;46.08;101489.09;4435496;32;20092;-79
2022/03/10 07:58:42;;;;;;;9.57;4.05;;;;;;;5.60;45.63;101496.25;4439150;32;20360;-77
2022/03/10 08:01:09;;;;;;;13.95;4.30;;;;;;;5.88;49.78;101499.56;4438908;32;20097;-80
2022/03/10 08:03:38;;;;;;;10.13;4.00;;;;;;;6.03;46.94;101493.84;4424340;32;20429;-82
2022/03/10 08:06:07;;;;;;;8.95;5.00;;;;;;;5.99;44.87;101496.41;4429446;32;20104;-81
2022/03/10 08:08:35;;;;;;;16.98;4.95;;;;;;;6.17;43.75;101503.81;4436035;32;20101;-82
2022/03/10 08:11:03;;;;;;;13.40;4.20;;;;;;;6.10;46.01;101503.63;4424507;32;20181;-81
2022/03/10 08:13:31;;;;;;;6.45;4.40;;;;;;;6.17;44.18;101495.94;4438817;32;20246;-82
2022/03/10 08:15:59;;;;;;;15.48;4.85;;;;;;;6.62;45.54;101499.59;4438717;32;20523;-81
2022/03/10 08:18:28;;;;;;;14.35;4.62;;;;;;;6.52;42.18;101495.00;4424172;32;20132;-81
2022/03/10 08:20:58;;;;;;;6.85;4.15;;;;;;;6.35;44.59;101510.31;4438857;32;20105;-82
2022/03/10 08:23:27;;;;;;;6.82;3.97;;;;;;;6.03;44.12;101510.44;4439171;32;20085;-81
2022/03/10 08:25:55;;;;;;;12.73;4.78;;;;;;;6.23;43.42;101503.97;4423915;32;20798;-81
2022/03/10 08:28:25;;;;;;;13.05;4.47;;;;;;;5.97;42.92;101495.50;4424387;32;20136;-82
2022/03/10 08:30:53;;;;;;;12.95;5.00;;;;;;;5.65;43.65;101498.97;4439157;32;20131;-81
2022/03/10 08:33:20;;;;;;;6.25;4.20;;;;;;;5.78;42.28;101492.34;4438616;32;20477;-80
2022/03/10 08:35:48;;;;;;;12.48;4.85;;;;;;;5.87;44.19;101492.59;4438851;32;20384;-81
2022/03/10 08:38:16;;;;;;;11.98;4.70;;;;;;;6.13;43.80;101490.63;4438932;32;20120;-81
2022/03/10 08:40:44;;;;;;;13.75;4.50;;;;;;;6.28;41.77;101490.97;4421201;32;20143;-81
2022/03/10 08:43:12;;;;;;;9.77;3.17;;;;;;;6.58;40.67;101489.91;4431405;32;20150;-82
2022/03/10 08:45:40;;;;;;;9.57;3.50;;;;;;;6.37;41.32;101496.44;4428984;32;20835;-80
2022/03/10 08:48:08;;;;;;;11.32;3.72;;;;;;;6.40;39.49;101487.78;4430382;32;20105;-82
2022/03/10 08:50:36;;;;;;;33.58;4.37;;;;;;;6.36;38.09;101488.53;4430604;32;20513;-82
2022/03/10 08:53:03;;;;;;;10.45;4.20;;;;;;;6.32;41.53;101489.31;4430700;32;20447;-82
2022/03/10 08:55:30;;;;;;;9.10;4.22;;;;;;;6.31;37.75;101492.78;4431042;32;20093;-81
2022/03/10 08:57:58;;;;;;;10.52;4.10;;;;;;;6.53;41.92;101499.38;4419590;32;20141;-82
2022/03/10 09:00:25;;;;;;;10.57;3.58;;;;;;;6.38;39.26;101505.16;4422526;32;20127;-82
2022/03/10 09:02:59;;;;;;;8.43;3.42;;;;;;;6.33;39.18;101499.84;4421557;32;20112;-80
2022/03/10 09:05:27;;;;;;;5.75;3.47;;;;;;;6.52;37.91;101505.47;4422869;32;20081;-79
2022/03/10 09:07:55;;;;;;;8.50;4.03;;;;;;;6.61;39.25;101511.81;4432392;32;20119;-82
2022/03/10 09:10:25;;;;;;;11.77;3.90;;;;;;;6.64;37.87;101516.22;4424891;32;20139;-80
2022/03/10 09:12:52;;;;;;;7.62;3.97;;;;;;;6.70;43.32;101522.47;4438994;32;20088;-80
2022/03/10 09:15:21;;;;;;;8.30;3.80;;;;;;;6.88;38.03;101514.13;4438876;32;20512;-79
2022/03/10 09:17:48;;;;;;;8.20;4.10;;;;;;;6.84;36.72;101519.28;4438694;32;20115;-80
2022/03/10 09:20:16;;;;;;;7.93;4.05;;;;;;;6.80;37.33;101520.06;4439127;32;20147;-82
2022/03/10 09:22:43;;;;;;;10.05;4.12;;;;;;;6.88;37.74;101518.50;4438537;32;20115;-80
2022/03/10 09:25:12;;;;;;;12.77;3.67;;;;;;;7.02;35.28;101509.19;4439056;32;20088;-81
2022/03/10 09:27:39;;;;;;;9.45;3.92;;;;;;;7.34;37.82;101520.31;4424970;32;20165;-81
2022/03/10 09:30:12;;;;;;;5.93;3.92;;;;;;;7.16;35.64;101518.22;4420402;32;20122;-82
2022/03/10 09:32:43;;;;;;;14.32;4.03;;;;;;;7.22;35.88;101525.31;4421513;32;20085;-80
2022/03/10 09:35:14;;;;;;;6.82;3.90;;;;;;;7.43;34.46;101522.25;4438237;32;20147;-81
2022/03/10 09:37:42;;;;;;;14.20;4.22;;;;;;;7.37;33.86;101532.59;4438403;32;20114;-80
2022/03/10 09:40:10;;;;;;;8.57;4.35;;;;;;;7.60;33.20;101523.44;4438877;32;20170;-80
2022/03/10 09:42:38;;;;;;;7.45;3.37;;;;;;;7.62;33.68;101518.22;4438890;32;20103;-80
2022/03/10 09:45:08;;;;;;;8.15;4.20;;;;;;;7.87;36.66;101530.03;4437870;32;20093;-80
2022/03/10 09:47:41;;;;;;;41.55;5.50;;;;;;;7.79;35.43;101536.91;4427709;32;20113;-81
2022/03/10 09:50:12;;;;;;;7.28;4.37;;;;;;;7.84;38.05;101525.63;4436955;32;20105;-81
2022/03/10 09:52:40;;;;;;;10.80;4.22;;;;;;;8.02;34.80;101526.78;4417019;32;20143;-81
2022/03/10 09:55:09;;;;;;;10.23;3.45;;;;;;;8.14;38.99;101527.00;4422237;32;20088;-80
2022/03/10 09:57:44;;;;;;;7.75;4.15;;;;;;;8.20;34.70;101528.81;4434000;32;20449;-81
2022/03/10 10:00:14;;;;;;;7.75;3.80;;;;;;;8.25;33.87;101528.06;4417367;32;20173;-80
2022/03/10 10:02:44;;;;;;;8.88;3.92;;;;;;;8.08;35.56;101529.50;4427302;32;20089;-80
2022/03/10 10:05:21;;;;;;;15.35;3.75;;;;;;;8.54;34.93;101532.91;4429775;32;20409;-80
2022/03/10 10:08:15;;;;;;;12.18;3.45;;;;;;;8.74;31.39;101527.94;4415799;32;20239;-80
2022/03/10 10:10:44;;;;;;;11.65;3.42;;;;;;;8.83;30.84;101538.56;4429284;32;20113;-81
2022/03/10 10:13:26;;;;;;;8.10;3.80;;;;;;;8.91;30.24;101534.31;4428170;32;20735;-81
2022/03/10 10:15:57;;;;;;;16.60;3.95;;;;;;;8.57;28.20;101528.56;4428526;32;20163;-77
2022/03/10 10:18:26;;;;;;;6.70;3.15;;;;;;;8.81;30.73;101532.41;4422615;32;20097;-81
2022/03/10 10:21:18;;;;;;;17.75;2.85;;;;;;;9.18;29.46;101536.41;4422401;32;20507;-82
2022/03/10 10:23:48;;;;;;;8.55;3.65;;;;;;;9.06;28.74;101536.25;4422000;32;20086;-82
2022/03/10 10:26:15;;;;;;;8.77;3.28;;;;;;;9.39;27.59;101540.16;4428452;32;20151;-79
2022/03/10 10:28:48;;;;;;;8.90;3.25;;;;;;;9.27;27.61;101538.28;4430057;32;20119;-82
2022/03/10 10:31:24;;;;;;;4.37;2.70;;;;;;;9.56;28.32;101543.84;4429337;32;20131;-82
2022/03/10 10:34:06;;;;;;;3.42;2.60;;;;;;;9.72;34.18;101544.91;4426908;32;20089;-82
2022/03/10 10:36:36;;;;;;;5.80;3.17;;;;;;;10.20;27.91;101541.81;4430770;32;20105;-82
2022/03/10 10:39:12;;;;;;;3.83;2.47;;;;;;;10.37;27.82;101531.47;4429860;32;20124;-83
2022/03/10 10:41:41;;;;;;;2.05;1.92;;;;;;;10.76;26.58;101541.38;4430295;32;20251;-81
2022/03/10 10:44:12;;;;;;;4.53;2.28;;;;;;;10.29;24.46;101539.31;4429884;32;20151;-80
2022/03/10 10:46:41;;;;;;;13.43;2.75;;;;;;;10.33;25.70;101539.34;4438193;32;20555;-81
2022/03/10 10:49:08;;;;;;;6.10;2.30;;;;;;;10.22;24.56;101541.84;4429454;32;20098;-79
2022/03/10 10:51:43;;;;;;;6.32;2.78;;;;;;;10.01;23.51;101538.16;4433173;32;20136;-82
2022/03/10 10:54:20;;;;;;;8.85;2.40;;;;;;;9.62;24.21;101532.53;4435990;32;20093;-81
2022/03/10 10:56:49;;;;;;;4.18;3.15;;;;;;;9.55;24.33;101537.72;4432681;32;20103;-82
2022/03/10 10:59:31;;;;;;;5.68;2.80;;;;;;;9.67;24.53;101546.59;4433004;32;20100;-81
2022/03/10 11:02:09;;;;;;;4.43;2.50;;;;;;;10.77;24.20;101536.97;4424549;32;20885;-81
2022/03/10 11:04:43;;;;;;;5.07;2.67;;;;;;;12.05;22.59;101539.19;4424761;32;20069;-78
2022/03/10 11:07:11;;;;;;;6.93;3.10;;;;;;;13.41;20.65;101532.72;4427695;32;20080;-79
2022/03/10 11:09:41;;;;;;;7.60;3.03;;;;;;;14.28;19.92;101539.22;4439793;32;20112;-78
2022/03/10 11:12:10;;;;;;;3.80;2.50;;;;;;;14.11;18.77;101529.63;4432924;32;20124;-80
2022/03/10 11:14:37;;;;;;;3.55;2.20;;;;;;;14.35;18.51;101520.56;4433515;32;20113;-79
2022/03/10 11:17:06;;;;;;;13.05;2.60;;;;;;;14.72;18.73;101533.50;4439986;32;20184;-80
2022/03/10 11:19:36;;;;;;;5.60;2.70;;;;;;;15.33;18.05;101536.31;4439999;32;20108;-78
2022/03/10 11:22:11;;;;;;;5.25;3.03;;;;;;;16.03;17.70;101537.97;4439824;32;20088;-78
2022/03/10 11:25:08;;;;;;;3.28;2.60;;;;;;;15.64;17.85;101529.69;4432373;32;20089;-77
2022/03/10 11:27:41;;;;;;;4.62;3.05;;;;;;;16.68;16.53;101525.34;4430453;32;20094;-80
2022/03/10 11:30:09;;;;;;;4.68;2.45;;;;;;;17.02;16.65;101532.66;4423691;32;20420;-78
2022/03/10 11:32:37;;;;;;;5.00;2.75;;;;;;;16.50;16.56;101538.94;4424477;32;20125;-77
2022/03/10 11:35:06;;;;;;;3.15;2.42;;;;;;;16.20;16.78;101530.59;4424404;32;20085;-74